createdAt,value
2019-06-26T00:00:45.849Z,0.00
2019-06-26T00:01:45.869Z,0.00
2019-06-26T00:02:45.892Z,0.00
2019-06-26T00:03:45.897Z,0.00
2019-06-26T00:04:45.922Z,0.00
2019-06-26T00:05:45.917Z,0.00
2019-06-26T00:06:45.939Z,0.00
2019-06-26T00:07:45.958Z,0.00
2019-06-26T00:08:45.964Z,0.00
2019-06-26T00:09:45.977Z,0.00
2019-06-26T00:10:45.993Z,0.00
2019-06-26T00:11:46.008Z,0.00
2019-06-26T00:12:46.018Z,0.00
2019-06-26T00:13:46.042Z,0.00
2019-06-26T00:14:46.056Z,0.00
2019-06-26T00:15:46.149Z,0.00
2019-06-26T00:16:46.086Z,0.00
2019-06-26T00:17:46.094Z,0.00
2019-06-26T00:18:46.111Z,0.00
2019-06-26T00:19:46.118Z,0.00
2019-06-26T00:20:46.130Z,0.00
2019-06-26T00:21:46.148Z,0.00
2019-06-26T00:22:46.161Z,0.00
2019-06-26T00:23:46.564Z,0.00
2019-06-26T00:24:46.190Z,0.00
2019-06-26T00:25:46.204Z,0.00
2019-06-26T00:26:46.212Z,0.00
2019-06-26T00:27:46.231Z,0.00
2019-06-26T00:28:46.249Z,0.00
2019-06-26T00:29:46.261Z,0.00
2019-06-26T00:30:46.356Z,0.00
2019-06-26T00:31:46.293Z,0.00
2019-06-26T00:32:46.305Z,0.00
2019-06-26T00:33:46.318Z,0.00
2019-06-26T00:34:46.327Z,0.00
2019-06-26T00:35:46.340Z,0.00
2019-06-26T00:36:46.359Z,0.00
2019-06-26T00:37:46.368Z,0.00
2019-06-26T00:38:46.384Z,0.00
2019-06-26T00:39:46.406Z,0.00
2019-06-26T00:40:46.477Z,0.00
2019-06-26T00:41:46.425Z,0.00
2019-06-26T00:42:46.447Z,0.00
2019-06-26T00:43:46.455Z,0.00
2019-06-26T00:44:46.467Z,0.00
2019-06-26T00:45:46.483Z,0.00
2019-06-26T00:46:46.499Z,0.00
2019-06-26T00:47:46.520Z,0.00
2019-06-26T00:48:46.526Z,0.00
2019-06-26T00:49:46.535Z,0.00
2019-06-26T00:50:46.550Z,0.00
2019-06-26T00:51:46.589Z,0.00
2019-06-26T00:52:46.573Z,0.00
2019-06-26T00:53:46.591Z,0.00
2019-06-26T00:54:46.614Z,0.00
2019-06-26T00:55:46.623Z,0.00
2019-06-26T00:56:46.634Z,0.00
2019-06-26T00:57:46.649Z,0.00
2019-06-26T00:58:46.674Z,0.00
2019-06-26T00:59:46.675Z,0.00
2019-06-26T01:00:46.690Z,0.00
2019-06-26T01:01:46.713Z,0.00
2019-06-26T01:02:46.719Z,0.00
2019-06-26T01:03:46.736Z,0.00
2019-06-26T01:04:46.742Z,0.00
2019-06-26T01:05:46.767Z,0.00
2019-06-26T01:06:46.774Z,0.00
2019-06-26T01:07:46.790Z,0.00
2019-06-26T01:08:46.835Z,0.00
2019-06-26T01:09:46.816Z,0.00
2019-06-26T01:10:46.828Z,0.00
2019-06-26T01:11:46.848Z,0.00
2019-06-26T01:12:46.850Z,0.00
2019-06-26T01:13:57.795Z,0.00
2019-06-26T01:14:46.883Z,0.00
2019-06-26T01:15:46.894Z,0.00
2019-06-26T01:16:46.911Z,0.00
2019-06-26T01:17:46.935Z,0.00
2019-06-26T01:18:46.940Z,0.00
2019-06-26T01:19:46.953Z,0.00
2019-06-26T01:20:46.962Z,0.00
2019-06-26T01:21:46.988Z,0.00
2019-06-26T01:22:46.995Z,0.00
2019-06-26T01:23:47.081Z,0.00
2019-06-26T01:24:47.028Z,0.00
2019-06-26T01:25:47.027Z,0.00
2019-06-26T01:26:47.045Z,0.00
2019-06-26T01:27:47.062Z,0.00
2019-06-26T01:28:47.074Z,0.00
2019-06-26T01:29:47.087Z,0.00
2019-06-26T01:30:47.109Z,0.00
2019-06-26T01:31:47.112Z,0.00
2019-06-26T01:32:47.126Z,0.00
2019-06-26T01:33:47.140Z,0.00
2019-06-26T01:34:47.170Z,0.00
2019-06-26T01:35:47.169Z,0.00
2019-06-26T01:36:47.178Z,0.00
2019-06-26T01:37:47.196Z,0.00
2019-06-26T01:38:47.223Z,0.00
2019-06-26T01:39:47.223Z,0.00
2019-06-26T01:40:47.233Z,0.00
2019-06-26T01:41:47.253Z,0.00
2019-06-26T01:42:47.274Z,0.00
2019-06-26T01:43:47.272Z,0.00
2019-06-26T01:44:47.291Z,0.00
2019-06-26T01:45:47.310Z,0.00
2019-06-26T01:46:47.317Z,0.00
2019-06-26T01:47:47.328Z,0.00
2019-06-26T01:48:47.351Z,0.00
2019-06-26T01:49:47.361Z,0.00
2019-06-26T01:50:47.378Z,0.00
2019-06-26T01:51:47.390Z,0.00
2019-06-26T01:52:47.401Z,0.00
2019-06-26T01:53:47.416Z,0.00
2019-06-26T01:54:47.429Z,0.00
2019-06-26T01:55:47.454Z,0.00
2019-06-26T01:56:47.453Z,0.00
2019-06-26T01:57:47.464Z,0.00
2019-06-26T01:58:47.479Z,0.00
2019-06-26T01:59:47.496Z,0.00
2019-06-26T02:00:47.680Z,0.00
2019-06-26T02:01:47.521Z,0.00
2019-06-26T02:02:47.531Z,0.00
2019-06-26T02:03:47.551Z,0.00
2019-06-26T02:04:47.564Z,0.00
2019-06-26T02:05:47.595Z,0.00
2019-06-26T02:06:47.586Z,0.00
2019-06-26T02:07:47.607Z,0.00
2019-06-26T02:08:47.739Z,0.00
2019-06-26T02:09:47.627Z,0.00
2019-06-26T02:10:47.658Z,0.00
2019-06-26T02:11:47.665Z,0.00
2019-06-26T02:12:47.669Z,0.00
2019-06-26T02:13:47.679Z,0.00
2019-06-26T02:14:47.698Z,0.00
2019-06-26T02:15:47.722Z,0.00
2019-06-26T02:16:47.733Z,0.00
2019-06-26T02:17:47.737Z,0.00
2019-06-26T02:18:47.754Z,0.00
2019-06-26T02:19:47.765Z,0.00
2019-06-26T02:20:47.768Z,0.00
2019-06-26T02:21:47.788Z,0.00
2019-06-26T02:22:49.631Z,0.00
2019-06-26T02:23:47.821Z,0.00
2019-06-26T02:24:47.836Z,0.00
2019-06-26T02:25:47.845Z,0.00
2019-06-26T02:26:47.859Z,0.00
2019-06-26T02:27:47.868Z,0.00
2019-06-26T02:28:47.890Z,0.00
2019-06-26T02:29:47.897Z,0.00
2019-06-26T02:30:48.040Z,0.00
2019-06-26T02:31:47.923Z,0.00
2019-06-26T02:32:47.938Z,0.00
2019-06-26T02:33:47.955Z,0.00
2019-06-26T02:34:47.974Z,0.00
2019-06-26T02:35:47.987Z,0.00
2019-06-26T02:36:47.989Z,0.00
2019-06-26T02:37:48.013Z,0.00
2019-06-26T02:38:48.018Z,0.00
2019-06-26T02:39:48.033Z,0.00
2019-06-26T02:40:48.043Z,0.00
2019-06-26T02:41:48.066Z,0.00
2019-06-26T02:42:48.102Z,0.00
2019-06-26T02:43:48.124Z,0.00
2019-06-26T02:44:53.919Z,0.00
2019-06-26T02:45:48.113Z,0.00
2019-06-26T02:46:48.126Z,0.00
2019-06-26T02:47:48.139Z,0.00
2019-06-26T02:48:48.153Z,0.00
2019-06-26T02:49:48.175Z,0.00
2019-06-26T02:50:48.224Z,0.00
2019-06-26T02:51:48.199Z,0.00
2019-06-26T02:52:48.204Z,0.00
2019-06-26T02:53:48.219Z,0.00
2019-06-26T02:54:48.229Z,0.00
2019-06-26T02:55:48.242Z,0.00
2019-06-26T02:56:48.257Z,0.00
2019-06-26T02:57:48.269Z,0.00
2019-06-26T02:58:48.304Z,0.00
2019-06-26T02:59:48.310Z,0.00
2019-06-26T03:00:48.316Z,0.00
2019-06-26T03:01:48.327Z,0.00
2019-06-26T03:02:48.343Z,0.00
2019-06-26T03:03:48.353Z,0.00
2019-06-26T03:04:48.371Z,5.63
2019-06-26T03:05:48.377Z,5.63
2019-06-26T03:06:48.387Z,5.63
2019-06-26T03:07:48.421Z,5.63
2019-06-26T03:08:48.433Z,5.63
2019-06-26T03:09:48.427Z,5.63
2019-06-26T03:10:48.439Z,5.63
2019-06-26T03:11:48.458Z,5.63
2019-06-26T03:12:48.473Z,5.63
2019-06-26T03:13:48.480Z,5.63
2019-06-26T03:14:48.528Z,5.63
2019-06-26T03:15:50.644Z,11.25
2019-06-26T03:16:48.535Z,11.25
2019-06-26T03:17:55.358Z,11.25
2019-06-26T03:18:48.561Z,11.25
2019-06-26T03:19:48.568Z,11.25
2019-06-26T03:20:48.584Z,11.25
2019-06-26T03:21:48.600Z,11.25
2019-06-26T03:22:48.601Z,16.88
2019-06-26T03:23:48.614Z,16.88
2019-06-26T03:24:48.625Z,16.88
2019-06-26T03:25:48.642Z,16.88
2019-06-26T03:26:48.663Z,16.88
2019-06-26T03:27:48.664Z,22.50
2019-06-26T03:28:48.829Z,22.50
2019-06-26T03:29:48.689Z,22.50
2019-06-26T03:30:48.706Z,22.50
2019-06-26T03:31:48.719Z,22.50
2019-06-26T03:32:48.733Z,28.13
2019-06-26T03:33:48.772Z,28.13
2019-06-26T03:34:48.778Z,28.13
2019-06-26T03:35:48.778Z,28.13
2019-06-26T03:36:48.791Z,28.13
2019-06-26T03:37:48.802Z,33.75
2019-06-26T03:38:48.814Z,33.75
2019-06-26T03:39:48.826Z,33.75
2019-06-26T03:40:48.847Z,33.75
2019-06-26T03:41:48.848Z,39.38
2019-06-26T03:42:48.865Z,39.38
2019-06-26T03:43:48.944Z,39.38
2019-06-26T03:44:48.922Z,39.38
2019-06-26T03:45:48.914Z,39.38
2019-06-26T03:46:48.916Z,45.00
2019-06-26T03:47:48.929Z,45.00
2019-06-26T03:48:48.946Z,45.00
2019-06-26T03:49:48.953Z,45.00
2019-06-26T03:50:48.961Z,50.63
2019-06-26T03:51:48.999Z,50.63
2019-06-26T03:52:49.008Z,50.63
2019-06-26T03:53:49.015Z,50.63
2019-06-26T03:54:49.022Z,56.25
2019-06-26T03:55:49.044Z,56.25
2019-06-26T03:56:49.057Z,61.88
2019-06-26T03:57:49.062Z,61.88
2019-06-26T03:58:49.080Z,61.88
2019-06-26T03:59:49.096Z,67.50
2019-06-26T04:00:49.098Z,67.50
2019-06-26T04:01:49.127Z,67.50
2019-06-26T04:02:49.126Z,73.13
2019-06-26T04:03:49.146Z,73.13
2019-06-26T04:04:49.149Z,73.13
2019-06-26T04:05:49.166Z,78.75
2019-06-26T04:06:49.181Z,78.75
2019-06-26T04:07:49.195Z,78.75
2019-06-26T04:08:49.201Z,84.38
2019-06-26T04:09:49.219Z,84.38
2019-06-26T04:10:49.236Z,84.38
2019-06-26T04:11:49.303Z,90.00
2019-06-26T04:12:49.269Z,90.00
2019-06-26T04:13:49.334Z,90.00
2019-06-26T04:14:49.287Z,90.00
2019-06-26T04:15:51.032Z,90.00
2019-06-26T04:16:49.318Z,90.00
2019-06-26T04:17:49.326Z,95.63
2019-06-26T04:18:49.334Z,95.63
2019-06-26T04:19:49.347Z,95.63
2019-06-26T04:20:49.357Z,101.25
2019-06-26T04:21:49.375Z,101.25
2019-06-26T04:22:49.385Z,101.25
2019-06-26T04:23:49.401Z,106.88
2019-06-26T04:24:49.412Z,106.88
2019-06-26T04:25:49.433Z,106.88
2019-06-26T04:26:49.443Z,112.50
2019-06-26T04:27:49.455Z,112.50
2019-06-26T04:28:49.468Z,112.50
2019-06-26T04:29:49.534Z,118.13
2019-06-26T04:30:49.497Z,118.13
2019-06-26T04:31:49.511Z,123.75
2019-06-26T04:32:49.520Z,123.75
2019-06-26T04:33:49.533Z,123.75
2019-06-26T04:34:49.547Z,129.38
2019-06-26T04:35:49.570Z,129.38
2019-06-26T04:36:49.572Z,129.38
2019-06-26T04:37:49.589Z,129.38
2019-06-26T04:38:49.598Z,135.00
2019-06-26T04:39:49.614Z,135.00
2019-06-26T04:40:49.627Z,140.63
2019-06-26T04:41:49.636Z,140.63
2019-06-26T04:42:49.653Z,140.63
2019-06-26T04:43:49.663Z,146.25
2019-06-26T04:44:49.678Z,146.25
2019-06-26T04:45:58.195Z,146.25
2019-06-26T04:46:49.705Z,151.88
2019-06-26T04:47:49.719Z,151.88
2019-06-26T04:48:49.732Z,151.88
2019-06-26T04:49:49.743Z,157.50
2019-06-26T04:50:49.767Z,157.50
2019-06-26T04:51:49.769Z,163.13
2019-06-26T04:52:49.787Z,163.13
2019-06-26T04:53:49.797Z,163.13
2019-06-26T04:54:49.810Z,168.75
2019-06-26T04:55:49.824Z,168.75
2019-06-26T04:56:49.854Z,168.75
2019-06-26T04:57:49.849Z,168.75
2019-06-26T04:58:49.868Z,174.38
2019-06-26T04:59:49.875Z,174.38
2019-06-26T05:00:49.887Z,174.38
2019-06-26T05:01:49.907Z,180.00
2019-06-26T05:02:49.916Z,180.00
2019-06-26T05:03:49.957Z,180.00
2019-06-26T05:04:49.942Z,185.63
2019-06-26T05:05:49.955Z,185.63
2019-06-26T05:06:49.984Z,185.63
2019-06-26T05:07:50.004Z,191.25
2019-06-26T05:08:49.996Z,191.25
2019-06-26T05:09:50.013Z,191.25
2019-06-26T05:10:50.044Z,196.88
2019-06-26T05:11:50.034Z,196.88
2019-06-26T05:12:50.053Z,196.88
2019-06-26T05:13:50.065Z,202.50
2019-06-26T05:14:50.076Z,202.50
2019-06-26T05:15:50.093Z,202.50
2019-06-26T05:16:50.122Z,202.50
2019-06-26T05:17:50.117Z,213.75
2019-06-26T05:18:50.131Z,208.13
2019-06-26T05:19:50.147Z,208.13
2019-06-26T05:20:50.156Z,213.75
2019-06-26T05:21:50.169Z,213.75
2019-06-26T05:22:50.185Z,213.75
2019-06-26T05:23:50.198Z,213.75
2019-06-26T05:24:50.208Z,219.38
2019-06-26T05:25:50.229Z,219.38
2019-06-26T05:26:50.238Z,219.38
2019-06-26T05:27:50.249Z,219.38
2019-06-26T05:28:50.262Z,219.38
2019-06-26T05:29:50.278Z,225.00
2019-06-26T05:30:50.295Z,225.00
2019-06-26T05:31:50.313Z,230.63
2019-06-26T05:32:50.317Z,241.88
2019-06-26T05:33:50.360Z,230.63
2019-06-26T05:34:50.359Z,241.88
2019-06-26T05:35:50.359Z,241.88
2019-06-26T05:36:50.377Z,236.25
2019-06-26T05:37:50.386Z,247.50
2019-06-26T05:38:50.404Z,241.88
2019-06-26T05:39:53.811Z,241.88
2019-06-26T05:40:50.430Z,247.50
2019-06-26T05:41:50.439Z,247.50
2019-06-26T05:42:50.460Z,247.50
2019-06-26T05:43:50.495Z,247.50
2019-06-26T05:44:50.492Z,247.50
2019-06-26T05:45:50.500Z,253.13
2019-06-26T05:46:50.507Z,253.13
2019-06-26T05:47:50.526Z,258.75
2019-06-26T05:48:50.544Z,258.75
2019-06-26T05:49:50.549Z,270.00
2019-06-26T05:50:50.568Z,270.00
2019-06-26T05:51:50.625Z,264.38
2019-06-26T05:52:50.612Z,264.38
2019-06-26T05:53:50.605Z,270.00
2019-06-26T05:54:50.617Z,270.00
2019-06-26T05:55:50.638Z,281.25
2019-06-26T05:56:50.649Z,275.63
2019-06-26T05:57:50.661Z,281.25
2019-06-26T05:58:50.680Z,292.50
2019-06-26T05:59:50.694Z,281.25
2019-06-26T06:00:50.711Z,298.13
2019-06-26T06:01:50.713Z,286.88
2019-06-26T06:02:53.795Z,286.88
2019-06-26T06:03:50.735Z,292.50
2019-06-26T06:04:50.757Z,286.88
2019-06-26T06:05:50.792Z,292.50
2019-06-26T06:06:50.798Z,292.50
2019-06-26T06:07:50.799Z,292.50
2019-06-26T06:08:50.815Z,298.13
2019-06-26T06:09:50.832Z,298.13
2019-06-26T06:10:50.843Z,315.00
2019-06-26T06:11:50.855Z,303.75
2019-06-26T06:12:50.871Z,309.38
2019-06-26T06:13:50.883Z,309.38
2019-06-26T06:14:50.898Z,309.38
2019-06-26T06:15:50.912Z,309.38
2019-06-26T06:16:50.946Z,309.38
2019-06-26T06:17:50.940Z,309.38
2019-06-26T06:18:50.954Z,315.00
2019-06-26T06:19:50.962Z,320.63
2019-06-26T06:20:50.975Z,320.63
2019-06-26T06:21:50.998Z,326.25
2019-06-26T06:22:51.005Z,326.25
2019-06-26T06:23:51.023Z,326.25
2019-06-26T06:24:51.036Z,326.25
2019-06-26T06:25:51.049Z,326.25
2019-06-26T06:26:51.062Z,337.50
2019-06-26T06:27:51.078Z,331.88
2019-06-26T06:28:51.097Z,331.88
2019-06-26T06:29:51.100Z,337.50
2019-06-26T06:30:51.119Z,343.13
2019-06-26T06:31:51.130Z,348.75
2019-06-26T06:32:51.145Z,354.38
2019-06-26T06:33:51.159Z,365.63
2019-06-26T06:34:51.176Z,371.25
2019-06-26T06:35:51.188Z,376.88
2019-06-26T06:36:51.202Z,382.50
2019-06-26T06:37:51.211Z,393.75
2019-06-26T06:38:51.292Z,405.00
2019-06-26T06:39:51.246Z,393.75
2019-06-26T06:40:51.259Z,393.75
2019-06-26T06:41:51.272Z,393.75
2019-06-26T06:42:51.288Z,399.38
2019-06-26T06:43:51.305Z,405.00
2019-06-26T06:44:51.326Z,410.63
2019-06-26T06:45:51.333Z,410.63
2019-06-26T06:47:03.404Z,421.88
2019-06-26T06:47:51.369Z,433.13
2019-06-26T06:48:51.381Z,421.88
2019-06-26T06:49:51.399Z,421.88
2019-06-26T06:50:51.412Z,416.25
2019-06-26T06:51:51.438Z,433.13
2019-06-26T06:52:51.447Z,438.75
2019-06-26T06:53:51.458Z,438.75
2019-06-26T06:54:51.480Z,438.75
2019-06-26T06:55:51.497Z,444.38
2019-06-26T06:56:51.512Z,444.38
2019-06-26T06:57:51.530Z,444.38
2019-06-26T06:58:51.543Z,461.25
2019-06-26T06:59:51.555Z,455.63
2019-06-26T07:00:51.576Z,455.63
2019-06-26T07:01:51.590Z,461.25
2019-06-26T07:02:51.607Z,489.38
2019-06-26T07:03:51.633Z,466.88
2019-06-26T07:04:51.642Z,478.13
2019-06-26T07:05:51.669Z,466.88
2019-06-26T07:06:51.680Z,472.50
2019-06-26T07:07:51.700Z,461.25
2019-06-26T07:08:51.711Z,466.88
2019-06-26T07:09:51.725Z,472.50
2019-06-26T07:10:51.742Z,466.88
2019-06-26T07:11:51.781Z,478.13
2019-06-26T07:12:51.874Z,478.13
2019-06-26T07:13:51.783Z,483.75
2019-06-26T07:14:51.811Z,489.38
2019-06-26T07:15:51.824Z,483.75
2019-06-26T07:16:51.850Z,483.75
2019-06-26T07:17:51.860Z,500.63
2019-06-26T07:18:51.878Z,500.63
2019-06-26T07:19:51.900Z,495.00
2019-06-26T07:20:51.908Z,506.25
2019-06-26T07:21:51.927Z,500.63
2019-06-26T07:22:51.944Z,506.25
2019-06-26T07:23:51.962Z,517.50
2019-06-26T07:24:51.978Z,500.63
2019-06-26T07:25:52.021Z,517.50
2019-06-26T07:26:52.017Z,511.88
2019-06-26T07:27:52.034Z,517.50
2019-06-26T07:28:52.045Z,545.63
2019-06-26T07:29:52.073Z,523.13
2019-06-26T07:30:52.085Z,528.75
2019-06-26T07:31:52.101Z,528.75
2019-06-26T07:32:52.120Z,534.38
2019-06-26T07:33:55.414Z,534.38
2019-06-26T07:34:52.167Z,545.63
2019-06-26T07:35:52.173Z,540.00
2019-06-26T07:36:52.197Z,556.88
2019-06-26T07:37:52.205Z,545.63
2019-06-26T07:38:52.234Z,562.50
2019-06-26T07:39:52.239Z,551.25
2019-06-26T07:40:52.256Z,562.50
2019-06-26T07:41:52.281Z,556.88
2019-06-26T07:42:52.291Z,568.13
2019-06-26T07:43:52.307Z,562.50
2019-06-26T07:44:52.324Z,585.00
2019-06-26T07:45:52.349Z,585.00
2019-06-26T07:46:52.415Z,579.38
2019-06-26T07:47:52.377Z,579.38
2019-06-26T07:48:52.398Z,590.63
2019-06-26T07:49:52.416Z,618.75
2019-06-26T07:50:52.560Z,596.25
2019-06-26T07:51:52.462Z,613.13
2019-06-26T07:52:52.467Z,618.75
2019-06-26T07:53:52.486Z,624.38
2019-06-26T07:54:52.508Z,630.00
2019-06-26T07:55:52.565Z,635.63
2019-06-26T07:56:52.542Z,624.38
2019-06-26T07:57:52.566Z,635.63
2019-06-26T07:58:52.580Z,646.88
2019-06-26T07:59:52.596Z,663.75
2019-06-26T08:00:52.609Z,658.13
2019-06-26T08:01:52.631Z,675.00
2019-06-26T08:02:52.668Z,675.00
2019-06-26T08:03:52.671Z,691.88
2019-06-26T08:04:52.701Z,697.50
2019-06-26T08:05:52.705Z,703.13
2019-06-26T08:06:52.719Z,725.63
2019-06-26T08:07:52.741Z,742.50
2019-06-26T08:08:52.767Z,765.00
2019-06-26T08:09:52.776Z,787.50
2019-06-26T08:10:52.797Z,821.25
2019-06-26T08:11:52.812Z,832.50
2019-06-26T08:12:52.838Z,815.63
2019-06-26T08:13:52.859Z,843.75
2019-06-26T08:14:52.872Z,832.50
2019-06-26T08:15:52.892Z,843.75
2019-06-26T08:16:52.907Z,866.25
2019-06-26T08:18:00.713Z,871.88
2019-06-26T08:18:52.947Z,871.88
2019-06-26T08:19:52.962Z,916.88
2019-06-26T08:21:10.858Z,894.38
2019-06-26T08:21:52.996Z,900.00
2019-06-26T08:22:53.014Z,900.00
2019-06-26T08:23:53.092Z,916.88
2019-06-26T08:24:53.110Z,922.50
2019-06-26T08:25:53.088Z,911.25
2019-06-26T08:26:53.097Z,939.38
2019-06-26T08:27:53.115Z,961.88
2019-06-26T08:28:53.126Z,961.88
2019-06-26T08:29:53.145Z,939.38
2019-06-26T08:30:53.164Z,933.75
2019-06-26T08:31:53.186Z,978.75
2019-06-26T08:32:53.205Z,1018.13
2019-06-26T08:33:53.227Z,1018.13
2019-06-26T08:34:53.301Z,1023.75
2019-06-26T08:35:53.275Z,1029.38
2019-06-26T08:36:53.283Z,1029.38
2019-06-26T08:38:08.886Z,1023.75
2019-06-26T08:38:53.317Z,1040.63
2019-06-26T08:39:53.350Z,1046.25
2019-06-26T08:40:53.361Z,1035.00
2019-06-26T08:41:53.382Z,1029.38
2019-06-26T08:42:53.398Z,1063.13
2019-06-26T08:43:53.418Z,1113.75
2019-06-26T08:44:53.440Z,1141.88
2019-06-26T08:45:53.459Z,1119.38
2019-06-26T08:46:53.480Z,1119.38
2019-06-26T08:47:53.496Z,1119.38
2019-06-26T08:48:53.517Z,1068.75
2019-06-26T08:49:53.532Z,1119.38
2019-06-26T08:50:53.557Z,1119.38
2019-06-26T08:51:53.578Z,1164.38
2019-06-26T08:52:53.594Z,1147.50
2019-06-26T08:53:53.614Z,1153.13
2019-06-26T08:54:53.638Z,1147.50
2019-06-26T08:55:53.654Z,1215.00
2019-06-26T08:56:53.679Z,1209.38
2019-06-26T08:57:53.692Z,1192.50
2019-06-26T08:58:53.729Z,1153.13
2019-06-26T08:59:53.745Z,1220.63
2019-06-26T09:00:53.758Z,1237.50
2019-06-26T09:01:53.778Z,1237.50
2019-06-26T09:02:53.790Z,1231.88
2019-06-26T09:03:53.813Z,1231.88
2019-06-26T09:04:53.826Z,1254.38
2019-06-26T09:05:53.849Z,1260.00
2019-06-26T09:06:53.876Z,1237.50
2019-06-26T09:07:53.911Z,1215.00
2019-06-26T09:08:53.989Z,1203.75
2019-06-26T09:09:53.934Z,1243.13
2019-06-26T09:10:53.944Z,1260.00
2019-06-26T09:11:53.964Z,1265.63
2019-06-26T09:12:53.985Z,1305.00
2019-06-26T09:13:54.011Z,1299.38
2019-06-26T09:14:54.033Z,1293.75
2019-06-26T09:15:54.044Z,1271.25
2019-06-26T09:16:54.071Z,1265.63
2019-06-26T09:17:54.086Z,1321.88
2019-06-26T09:18:54.104Z,1305.00
2019-06-26T09:19:54.124Z,1316.25
2019-06-26T09:20:54.147Z,1350.00
2019-06-26T09:21:54.164Z,1344.38
2019-06-26T09:22:54.193Z,1327.50
2019-06-26T09:23:54.203Z,1293.75
2019-06-26T09:24:54.227Z,1344.38
2019-06-26T09:25:54.245Z,1366.88
2019-06-26T09:26:54.264Z,1355.63
2019-06-26T09:27:54.283Z,1333.13
2019-06-26T09:28:54.301Z,1395.00
2019-06-26T09:29:54.439Z,1383.75
2019-06-26T09:30:54.349Z,1383.75
2019-06-26T09:31:54.370Z,1406.25
2019-06-26T09:32:54.385Z,1344.38
2019-06-26T09:33:54.403Z,1400.63
2019-06-26T09:34:54.442Z,1406.25
2019-06-26T09:35:54.439Z,1355.63
2019-06-26T09:36:54.468Z,1383.75
2019-06-26T09:37:54.496Z,1406.25
2019-06-26T09:38:57.745Z,1417.50
2019-06-26T09:39:54.518Z,1389.38
2019-06-26T09:40:54.545Z,1366.88
2019-06-26T09:41:54.563Z,1395.00
2019-06-26T09:42:54.583Z,1355.63
2019-06-26T09:43:54.601Z,1411.88
2019-06-26T09:44:54.629Z,1389.38
2019-06-26T09:45:54.639Z,1383.75
2019-06-26T09:47:54.683Z,1451.25
2019-06-26T09:48:54.701Z,1468.13
2019-06-26T09:49:54.730Z,1445.63
2019-06-26T09:50:54.744Z,1428.75
2019-06-26T09:51:54.766Z,1473.75
2019-06-26T09:52:54.786Z,1445.63
2019-06-26T09:53:54.804Z,1423.13
2019-06-26T09:54:54.824Z,1417.50
2019-06-26T09:55:54.906Z,1479.38
2019-06-26T09:56:54.888Z,1473.75
2019-06-26T09:57:54.885Z,1445.63
2019-06-26T09:58:54.903Z,1490.63
2019-06-26T09:59:54.923Z,1451.25
2019-06-26T10:00:54.951Z,1451.25
2019-06-26T10:01:54.985Z,1490.63
2019-06-26T10:02:54.985Z,1541.25
2019-06-26T10:03:55.009Z,1586.25
2019-06-26T10:04:55.025Z,1524.38
2019-06-26T10:05:55.048Z,1501.88
2019-06-26T10:06:55.070Z,1513.13
2019-06-26T10:07:55.146Z,1518.75
2019-06-26T10:08:55.105Z,1530.00
2019-06-26T10:09:55.177Z,1530.00
2019-06-26T10:10:55.146Z,1541.25
2019-06-26T10:11:55.178Z,1530.00
2019-06-26T10:12:55.189Z,1524.38
2019-06-26T10:13:55.373Z,1473.75
2019-06-26T10:14:55.235Z,1518.75
2019-06-26T10:15:55.253Z,1518.75
2019-06-26T10:16:55.273Z,1490.63
2019-06-26T10:17:55.300Z,1496.25
2019-06-26T10:19:09.051Z,1507.50
2019-06-26T10:19:55.337Z,1451.25
2019-06-26T10:20:55.354Z,1456.88
2019-06-26T10:21:55.377Z,1473.75
2019-06-26T10:22:55.394Z,1473.75
2019-06-26T10:23:55.482Z,1541.25
2019-06-26T10:24:55.434Z,1479.38
2019-06-26T10:25:55.467Z,1541.25
2019-06-26T10:26:55.481Z,1530.00
2019-06-26T10:27:55.498Z,1569.38
2019-06-26T10:28:55.537Z,1507.50
2019-06-26T10:29:55.611Z,1507.50
2019-06-26T10:30:55.559Z,1586.25
2019-06-26T10:31:55.595Z,1625.63
2019-06-26T10:32:55.645Z,1586.25
2019-06-26T10:33:55.622Z,1614.38
2019-06-26T10:34:55.657Z,1620.00
2019-06-26T10:35:55.664Z,1625.63
2019-06-26T10:36:55.689Z,1625.63
2019-06-26T10:37:55.717Z,1653.75
2019-06-26T10:38:55.727Z,1631.25
2019-06-26T10:39:55.745Z,1631.25
2019-06-26T10:40:55.790Z,1631.25
2019-06-26T10:41:55.790Z,1620.00
2019-06-26T10:42:55.820Z,1636.88
2019-06-26T10:43:55.831Z,1631.25
2019-06-26T10:44:55.849Z,1653.75
2019-06-26T10:45:55.871Z,1648.13
2019-06-26T10:46:55.895Z,1586.25
2019-06-26T10:47:55.911Z,1653.75
2019-06-26T10:48:55.933Z,1665.00
2019-06-26T10:49:55.957Z,1625.63
2019-06-26T10:50:58.853Z,1648.13
2019-06-26T10:52:56.026Z,1642.50
2019-06-26T10:53:56.044Z,1631.25
2019-06-26T10:54:56.058Z,1597.50
2019-06-26T10:55:56.088Z,1614.38
2019-06-26T10:56:56.103Z,1614.38
2019-06-26T10:57:56.122Z,1608.75
2019-06-26T10:58:56.143Z,1608.75
2019-06-26T10:59:56.228Z,1648.13
2019-06-26T11:00:56.193Z,1676.25
2019-06-26T11:01:56.218Z,1614.38
2019-06-26T11:02:56.230Z,1631.25
2019-06-26T11:03:56.246Z,1648.13
2019-06-26T11:04:56.272Z,1631.25
2019-06-26T11:05:56.288Z,1676.25
2019-06-26T11:06:56.304Z,1620.00
2019-06-26T11:07:56.327Z,1642.50
2019-06-26T11:08:56.360Z,1670.63
2019-06-26T11:09:56.370Z,1665.00
2019-06-26T11:10:56.397Z,1659.38
2019-06-26T11:11:56.426Z,1586.25
2019-06-26T11:12:56.434Z,1620.00
2019-06-26T11:13:56.460Z,1614.38
2019-06-26T11:14:56.470Z,1608.75
2019-06-26T11:15:56.492Z,1665.00
2019-06-26T11:16:56.548Z,1665.00
2019-06-26T11:17:56.639Z,1642.50
2019-06-26T11:18:56.555Z,1670.63
2019-06-26T11:19:56.575Z,1726.88
2019-06-26T11:20:56.597Z,1710.00
2019-06-26T11:21:56.613Z,1687.50
2019-06-26T11:22:56.687Z,1665.00
2019-06-26T11:23:56.658Z,1603.13
2019-06-26T11:24:56.730Z,1614.38
2019-06-26T11:25:56.700Z,1558.13
2019-06-26T11:26:56.716Z,1614.38
2019-06-26T11:27:56.741Z,1687.50
2019-06-26T11:28:56.766Z,1659.38
2019-06-26T11:29:56.784Z,1597.50
2019-06-26T11:30:56.800Z,1580.63
2019-06-26T11:31:56.822Z,1563.75
2019-06-26T11:32:56.842Z,1603.13
2019-06-26T11:33:56.862Z,1597.50
2019-06-26T11:34:57.032Z,1636.88
2019-06-26T11:35:56.902Z,1620.00
2019-06-26T11:37:03.934Z,1676.25
2019-06-26T11:37:56.965Z,1648.13
2019-06-26T11:38:56.970Z,1693.13
2019-06-26T11:39:56.985Z,1631.25
2019-06-26T11:40:57.008Z,1575.00
2019-06-26T11:41:57.022Z,1558.13
2019-06-26T11:42:57.045Z,1603.13
2019-06-26T11:43:57.067Z,1546.88
2019-06-26T11:44:57.088Z,1659.38
2019-06-26T11:45:57.109Z,1597.50
2019-06-26T11:46:57.124Z,1648.13
2019-06-26T11:47:57.147Z,1608.75
2019-06-26T11:48:57.167Z,1603.13
2019-06-26T11:50:00.335Z,1631.25
2019-06-26T11:50:57.211Z,1614.38
2019-06-26T11:51:57.251Z,1659.38
2019-06-26T11:52:57.262Z,1591.88
2019-06-26T11:53:59.078Z,1563.75
2019-06-26T11:55:02.647Z,1676.25
2019-06-26T11:55:57.313Z,1614.38
2019-06-26T11:56:57.332Z,1676.25
2019-06-26T11:57:57.359Z,1614.38
2019-06-26T11:58:57.393Z,1676.25
2019-06-26T11:59:57.409Z,1665.00
2019-06-26T12:00:57.451Z,1552.50
2019-06-26T12:01:57.443Z,1546.88
2019-06-26T12:02:57.489Z,1546.88
2019-06-26T12:03:57.484Z,1721.25
2019-06-26T12:04:57.509Z,1591.88
2019-06-26T12:06:11.871Z,1501.88
2019-06-26T12:07:57.584Z,1518.75
2019-06-26T12:08:57.590Z,1665.00
2019-06-26T12:09:57.669Z,1546.88
2019-06-26T12:10:57.637Z,1501.88
2019-06-26T12:11:57.656Z,1479.38
2019-06-26T12:12:57.672Z,1591.88
2019-06-26T12:13:57.690Z,1670.63
2019-06-26T12:14:57.718Z,1698.75
2019-06-26T12:15:57.734Z,1653.75
2019-06-26T12:16:57.770Z,1591.88
2019-06-26T12:17:57.823Z,1518.75
2019-06-26T12:18:57.814Z,1546.88
2019-06-26T12:19:57.885Z,1541.25
2019-06-26T12:20:57.851Z,1389.38
2019-06-26T12:21:57.867Z,1575.00
2019-06-26T12:22:57.883Z,1558.13
2019-06-26T12:23:57.918Z,1496.25
2019-06-26T12:24:57.932Z,1501.88
2019-06-26T12:25:57.951Z,1485.00
2019-06-26T12:26:57.981Z,1451.25
2019-06-26T12:27:57.987Z,1462.50
2019-06-26T12:28:58.028Z,1445.63
2019-06-26T12:29:58.045Z,1485.00
2019-06-26T12:30:58.054Z,1518.75
2019-06-26T12:31:58.093Z,1445.63
2019-06-26T12:33:03.505Z,1479.38
2019-06-26T12:33:58.114Z,1485.00
2019-06-26T12:34:58.209Z,1591.88
2019-06-26T12:35:58.165Z,1625.63
2019-06-26T12:36:58.192Z,1636.88
2019-06-26T12:37:58.459Z,1597.50
2019-06-26T12:38:58.229Z,1501.88